createdAt,value
2023-03-26T00:00:11.993Z,99817.33
2023-03-26T00:01:37.712Z,99819.78
2023-03-26T00:02:41.069Z,99816.39
2023-03-26T00:03:53.569Z,99818.02
2023-03-26T00:04:56.478Z,99820.86
2023-03-26T00:06:12.855Z,99820.39
2023-03-26T00:07:16.102Z,99819.41
2023-03-26T00:08:18.936Z,99820.80
2023-03-26T00:09:21.915Z,99821.34
2023-03-26T00:10:25.532Z,99818.88
2023-03-26T00:11:29.620Z,99817.19
2023-03-26T00:12:32.504Z,99812.96
2023-03-26T00:13:35.799Z,99813.14
2023-03-26T00:14:40.862Z,99810.36
2023-03-26T00:15:43.610Z,99813.84
2023-03-26T00:16:47.453Z,99813.14
2023-03-26T00:17:51.702Z,99811.05
2023-03-26T00:18:55.357Z,99811.78
2023-03-26T00:19:59.677Z,99809.98
2023-03-26T00:21:05.453Z,99812.64
2023-03-26T00:22:11.227Z,99807.09
2023-03-26T00:23:14.439Z,99803.27
2023-03-26T00:24:17.438Z,99799.81
2023-03-26T00:25:21.457Z,99800.98
2023-03-26T00:26:24.599Z,99799.46
2023-03-26T00:27:27.789Z,99802.37
2023-03-26T00:28:30.854Z,99801.06
2023-03-26T00:29:35.719Z,99803.47
2023-03-26T00:30:41.810Z,99801.30
2023-03-26T00:31:46.592Z,99800.30
2023-03-26T00:32:53.652Z,99799.56
2023-03-26T00:33:57.884Z,99800.74
2023-03-26T00:35:01.931Z,99797.60
2023-03-26T00:36:14.742Z,99800.77
2023-03-26T00:37:18.393Z,99797.85
2023-03-26T00:38:22.615Z,99794.81
2023-03-26T00:39:25.461Z,99793.05
2023-03-26T00:40:29.893Z,99792.42
2023-03-26T00:41:37.177Z,99794.16
2023-03-26T00:42:40.401Z,99798.51
2023-03-26T00:43:46.732Z,99794.15
2023-03-26T00:44:54.991Z,99791.33
2023-03-26T00:45:58.044Z,99788.65
2023-03-26T00:47:01.539Z,99786.69
2023-03-26T00:48:04.976Z,99785.98
2023-03-26T00:49:11.199Z,99784.27
2023-03-26T00:50:16.301Z,99784.50
2023-03-26T00:51:20.829Z,99784.39
2023-03-26T00:52:23.944Z,99780.70
2023-03-26T00:53:27.001Z,99781.70
2023-03-26T00:54:29.914Z,99779.92
2023-03-26T00:55:32.800Z,99780.98
2023-03-26T00:56:35.900Z,99780.69
2023-03-26T00:57:40.318Z,99775.65
2023-03-26T00:58:43.797Z,99781.84
2023-03-26T00:59:46.724Z,99779.06
2023-03-26T01:00:52.448Z,99778.52
2023-03-26T01:01:58.495Z,99782.02
2023-03-26T01:03:04.352Z,99778.91
2023-03-26T01:04:28.194Z,99783.36
2023-03-26T01:05:35.060Z,99781.27
2023-03-26T01:06:42.363Z,99783.25
2023-03-26T01:07:46.217Z,99786.63
2023-03-26T01:08:51.130Z,99778.73
2023-03-26T01:09:55.299Z,99785.17
2023-03-26T01:11:03.124Z,99784.19
2023-03-26T01:12:08.724Z,99781.06
2023-03-26T01:13:12.901Z,99782.01
2023-03-26T01:14:23.608Z,99781.74
2023-03-26T01:15:30.145Z,99781.23
2023-03-26T01:16:46.615Z,99779.63
2023-03-26T01:17:52.106Z,99773.05
2023-03-26T01:18:58.796Z,99773.88
2023-03-26T01:20:15.139Z,99775.88
2023-03-26T01:21:30.515Z,99775.52
2023-03-26T01:22:36.650Z,99773.58
2023-03-26T01:23:49.111Z,99774.28
2023-03-26T01:24:56.637Z,99774.31
2023-03-26T01:26:17.595Z,99775.49
2023-03-26T01:27:24.685Z,99775.98
2023-03-26T01:28:32.353Z,99775.71
2023-03-26T01:29:44.675Z,99775.77
2023-03-26T01:33:14.116Z,99771.09
2023-03-26T01:34:37.364Z,99766.83
2023-03-26T01:35:52.899Z,99766.58
2023-03-26T01:37:18.795Z,99766.17
2023-03-26T01:38:32.832Z,99764.73
2023-03-26T01:39:49.597Z,99760.73
2023-03-26T01:41:08.308Z,99763.55
2023-03-26T01:42:35.392Z,99760.14
2023-03-26T01:43:55.399Z,99758.49
2023-03-26T01:45:09.437Z,99756.94
2023-03-26T01:46:15.466Z,99759.86
2023-03-26T01:47:19.388Z,99755.70
2023-03-26T01:48:30.681Z,99759.19
2023-03-26T01:49:33.750Z,99752.18
2023-03-26T01:50:36.764Z,99755.63
2023-03-26T01:51:42.100Z,99750.33
2023-03-26T01:52:45.122Z,99749.52
2023-03-26T01:53:48.398Z,99749.02
2023-03-26T01:54:52.487Z,99744.35
2023-03-26T01:56:27.017Z,99748.40
2023-03-26T01:57:32.457Z,99741.72
2023-03-26T01:58:48.593Z,99744.52
2023-03-26T02:00:40.115Z,99744.06
2023-03-26T02:02:01.398Z,99744.11
2023-03-26T02:03:27.966Z,99747.23
2023-03-26T02:04:39.766Z,99743.05
2023-03-26T02:05:57.979Z,99738.07
2023-03-26T02:07:06.193Z,99741.62
2023-03-26T02:08:35.777Z,99741.59
2023-03-26T02:09:45.913Z,99739.19
2023-03-26T02:10:55.484Z,99738.14
2023-03-26T02:11:59.608Z,99737.62
2023-03-26T02:13:03.277Z,99735.98
2023-03-26T02:14:08.380Z,99735.65
2023-03-26T02:15:12.321Z,99733.77
2023-03-26T02:16:20.233Z,99733.92
2023-03-26T02:17:24.509Z,99737.29
2023-03-26T02:18:39.020Z,99733.77
2023-03-26T02:19:42.379Z,99735.78
2023-03-26T02:20:45.385Z,99737.54
2023-03-26T02:21:52.535Z,99735.73
2023-03-26T02:22:57.785Z,99735.20
2023-03-26T02:24:04.518Z,99737.34
2023-03-26T02:25:12.308Z,99737.66
2023-03-26T02:26:18.208Z,99738.29
2023-03-26T02:27:31.840Z,99734.60
2023-03-26T02:28:34.889Z,99735.11
2023-03-26T02:29:40.439Z,99733.74
2023-03-26T02:30:46.010Z,99734.97
2023-03-26T02:31:51.426Z,99730.73
2023-03-26T02:32:54.659Z,99732.77
2023-03-26T02:33:58.853Z,99731.88
2023-03-26T02:35:05.473Z,99727.98
2023-03-26T02:36:10.759Z,99731.90
2023-03-26T02:37:14.095Z,99729.23
2023-03-26T02:38:19.628Z,99731.39
2023-03-26T02:39:23.464Z,99725.11
2023-03-26T02:40:32.980Z,99729.54
2023-03-26T02:41:37.431Z,99726.30
2023-03-26T02:42:47.547Z,99729.36
2023-03-26T02:43:50.590Z,99727.73
2023-03-26T02:44:55.430Z,99725.05
2023-03-26T02:46:17.298Z,99725.88
2023-03-26T02:47:31.403Z,99722.77
2023-03-26T02:48:54.723Z,99719.31
2023-03-26T02:50:03.802Z,99715.53
2023-03-26T02:51:27.577Z,99713.39
2023-03-26T02:52:54.228Z,99711.68
2023-03-26T02:53:57.112Z,99710.58
2023-03-26T02:55:21.126Z,99711.88
2023-03-26T02:56:25.527Z,99711.39
2023-03-26T02:57:55.373Z,99705.69
2023-03-26T02:59:04.879Z,99705.69
2023-03-26T03:00:14.417Z,99706.64
2023-03-26T03:01:38.378Z,99704.50
2023-03-26T03:02:41.476Z,99702.31
2023-03-26T03:04:13.712Z,99703.72
2023-03-26T03:05:18.526Z,99699.37
2023-03-26T03:06:22.622Z,99695.88
2023-03-26T03:07:29.643Z,99700.88
2023-03-26T03:08:34.094Z,99698.60
2023-03-26T03:09:54.877Z,99697.37
2023-03-26T03:11:22.232Z,99698.92
2023-03-26T03:12:26.180Z,99694.45
2023-03-26T03:13:29.995Z,99697.75
2023-03-26T03:14:32.968Z,99698.55
2023-03-26T03:15:36.106Z,99703.26
2023-03-26T03:16:39.005Z,99700.19
2023-03-26T03:17:44.534Z,99702.60
2023-03-26T03:18:54.655Z,99703.17
2023-03-26T03:19:58.278Z,99701.02
2023-03-26T03:21:02.919Z,99703.04
2023-03-26T03:22:06.394Z,99702.02
2023-03-26T03:23:09.945Z,99701.31
2023-03-26T03:24:13.984Z,99702.27
2023-03-26T03:25:22.259Z,99697.85
2023-03-26T03:26:30.049Z,99696.73
2023-03-26T03:27:39.337Z,99696.23
2023-03-26T03:28:48.261Z,99697.91
2023-03-26T03:29:55.975Z,99693.82
2023-03-26T03:31:31.206Z,99693.65
2023-03-26T03:32:38.660Z,99693.81
2023-03-26T03:33:43.108Z,99689.33
2023-03-26T03:34:46.488Z,99688.95
2023-03-26T03:35:50.631Z,99689.31
2023-03-26T03:36:53.904Z,99689.00
2023-03-26T03:38:19.849Z,99692.65
2023-03-26T03:39:24.697Z,99693.06
2023-03-26T03:40:27.750Z,99696.25
2023-03-26T03:41:31.309Z,99691.56
2023-03-26T03:42:34.996Z,99689.66
2023-03-26T03:43:39.077Z,99690.41
2023-03-26T03:44:47.601Z,99689.79
2023-03-26T03:46:09.311Z,99690.52
2023-03-26T03:47:23.961Z,99687.91
2023-03-26T03:48:28.042Z,99690.39
2023-03-26T03:49:31.045Z,99691.30
2023-03-26T03:50:35.808Z,99686.85
2023-03-26T03:51:53.209Z,99690.16
2023-03-26T03:53:03.024Z,99687.41
2023-03-26T03:54:05.964Z,99690.06
2023-03-26T03:55:27.760Z,99689.27
2023-03-26T03:56:30.879Z,99688.38
2023-03-26T03:57:52.653Z,99688.86
2023-03-26T03:58:59.609Z,99686.15
2023-03-26T04:00:11.809Z,99688.48
2023-03-26T04:01:23.605Z,99691.77
2023-03-26T04:02:36.251Z,99691.17
2023-03-26T04:03:40.861Z,99694.63
2023-03-26T04:04:50.404Z,99691.14
2023-03-26T04:05:57.128Z,99688.34
2023-03-26T04:07:01.168Z,99688.90
2023-03-26T04:08:12.274Z,99688.98
2023-03-26T04:09:21.456Z,99687.13
2023-03-26T04:10:24.501Z,99688.54
2023-03-26T04:11:39.583Z,99689.39
2023-03-26T04:12:53.941Z,99686.42
2023-03-26T04:14:07.236Z,99687.04
2023-03-26T04:15:32.031Z,99686.22
2023-03-26T04:16:35.278Z,99685.73
2023-03-26T04:17:42.674Z,99682.64
2023-03-26T04:18:46.422Z,99682.91
2023-03-26T04:19:53.163Z,99681.49
2023-03-26T04:20:56.675Z,99681.14
2023-03-26T04:22:03.104Z,99683.92
2023-03-26T04:23:14.232Z,99683.13
2023-03-26T04:24:17.147Z,99681.21
2023-03-26T04:25:39.415Z,99682.81
2023-03-26T04:26:51.681Z,99683.21
2023-03-26T04:28:08.588Z,99681.09
2023-03-26T04:29:42.924Z,99679.73
2023-03-26T04:30:53.794Z,99680.13
2023-03-26T04:32:30.472Z,99682.14
2023-03-26T04:33:35.101Z,99680.69
2023-03-26T04:34:38.812Z,99679.45
2023-03-26T04:35:45.504Z,99677.13
2023-03-26T04:36:49.228Z,99676.48
2023-03-26T04:37:52.957Z,99676.88
2023-03-26T04:39:05.114Z,99679.34
2023-03-26T04:40:30.553Z,99677.94
2023-03-26T04:41:43.425Z,99680.58
2023-03-26T04:42:54.849Z,99679.98
2023-03-26T04:44:22.522Z,99675.21
2023-03-26T04:45:31.232Z,99672.80
2023-03-26T04:46:35.193Z,99673.98
2023-03-26T04:48:04.295Z,99673.77
2023-03-26T04:49:07.358Z,99670.30
2023-03-26T04:50:11.333Z,99670.72
2023-03-26T04:51:18.293Z,99665.48
2023-03-26T04:52:21.538Z,99667.36
2023-03-26T04:53:34.541Z,99666.94
2023-03-26T04:55:00.096Z,99667.42
2023-03-26T04:56:19.611Z,99670.77
2023-03-26T04:57:52.015Z,99665.75
2023-03-26T04:59:20.161Z,99665.54
2023-03-26T05:00:24.858Z,99669.13
2023-03-26T05:01:30.817Z,99668.36
2023-03-26T05:02:34.201Z,99668.20
2023-03-26T05:03:40.681Z,99670.77
2023-03-26T05:04:47.729Z,99672.98
2023-03-26T05:05:51.653Z,99669.25
2023-03-26T05:06:55.222Z,99673.81
2023-03-26T05:08:02.712Z,99670.13
2023-03-26T05:09:05.746Z,99674.92
2023-03-26T05:10:28.635Z,99673.04
2023-03-26T05:11:40.242Z,99672.41
2023-03-26T05:12:43.466Z,99669.81
2023-03-26T05:13:51.152Z,99672.11
2023-03-26T05:14:54.743Z,99670.77
2023-03-26T05:16:16.667Z,99672.63
2023-03-26T05:17:41.658Z,99674.69
2023-03-26T05:18:51.651Z,99673.87
2023-03-26T05:19:54.795Z,99672.31
2023-03-26T05:20:58.424Z,99671.17
2023-03-26T05:22:02.536Z,99670.46
2023-03-26T05:23:08.018Z,99671.59
2023-03-26T05:24:17.019Z,99670.42
2023-03-26T05:25:20.756Z,99673.15
2023-03-26T05:26:24.127Z,99674.68
2023-03-26T05:27:26.966Z,99676.58
2023-03-26T05:28:30.856Z,99674.11
2023-03-26T05:29:40.989Z,99673.56
2023-03-26T05:30:44.590Z,99674.98
2023-03-26T05:31:48.717Z,99671.84
2023-03-26T05:32:52.287Z,99673.66
2023-03-26T05:34:00.484Z,99675.67
2023-03-26T05:35:04.464Z,99675.30
2023-03-26T05:36:13.373Z,99675.52
2023-03-26T05:37:19.995Z,99674.98
2023-03-26T05:38:32.839Z,99678.61
2023-03-26T05:39:36.183Z,99678.48
2023-03-26T05:41:02.611Z,99677.50
2023-03-26T05:42:07.958Z,99678.98
2023-03-26T05:43:22.073Z,99678.38
2023-03-26T05:44:43.361Z,99680.06
2023-03-26T05:45:53.048Z,99681.21
2023-03-26T05:47:02.663Z,99680.59
2023-03-26T05:48:06.134Z,99683.86
2023-03-26T05:49:09.035Z,99683.69
2023-03-26T05:50:12.117Z,99682.14
2023-03-26T05:51:16.960Z,99681.96
2023-03-26T05:52:26.837Z,99680.89
2023-03-26T05:53:48.351Z,99681.96
2023-03-26T05:55:27.827Z,99682.24
2023-03-26T05:56:49.407Z,99679.75
2023-03-26T05:58:12.260Z,99677.54
2023-03-26T05:59:27.128Z,99677.55
2023-03-26T06:00:48.916Z,99677.91
2023-03-26T06:01:54.615Z,99677.98
2023-03-26T06:03:12.981Z,99680.65
2023-03-26T06:04:34.675Z,99678.73
2023-03-26T06:05:59.432Z,99682.09
2023-03-26T06:07:14.066Z,99680.95
2023-03-26T06:08:21.969Z,99681.26
2023-03-26T06:09:27.077Z,99681.23
2023-03-26T06:10:30.454Z,99680.16
2023-03-26T06:11:33.802Z,99680.33
2023-03-26T06:12:38.833Z,99680.94
2023-03-26T06:13:42.644Z,99678.06
2023-03-26T06:14:47.157Z,99679.36
2023-03-26T06:15:58.474Z,99681.09
2023-03-26T06:17:06.239Z,99676.89
2023-03-26T06:18:29.098Z,99678.55
2023-03-26T06:19:51.084Z,99675.64
2023-03-26T06:21:01.275Z,99678.60
2023-03-26T06:22:24.611Z,99679.34
2023-03-26T06:23:53.996Z,99675.57
2023-03-26T06:25:16.205Z,99677.44
2023-03-26T06:26:43.461Z,99675.52
2023-03-26T06:28:01.846Z,99678.73
2023-03-26T06:29:37.118Z,99673.66
2023-03-26T06:30:54.913Z,99680.68
2023-03-26T06:32:19.152Z,99677.56
2023-03-26T06:33:34.198Z,99681.17
2023-03-26T06:34:37.218Z,99680.16
2023-03-26T06:35:40.489Z,99678.54
2023-03-26T06:36:43.424Z,99683.05
2023-03-26T06:37:46.586Z,99681.38
2023-03-26T06:38:49.468Z,99680.98
2023-03-26T06:39:52.557Z,99684.42
2023-03-26T06:41:04.820Z,99681.94
2023-03-26T06:42:19.774Z,99688.77
2023-03-26T06:43:45.576Z,99683.16
2023-03-26T06:45:09.047Z,99682.29
2023-03-26T06:47:02.031Z,99680.11
2023-03-26T06:48:23.430Z,99683.30
2023-03-26T06:49:49.676Z,99682.70
2023-03-26T06:51:13.041Z,99684.73
2023-03-26T06:52:34.619Z,99686.09
2023-03-26T06:53:45.695Z,99682.10
2023-03-26T06:55:10.264Z,99686.11
2023-03-26T06:56:33.639Z,99686.56
2023-03-26T06:57:58.324Z,99683.90
2023-03-26T06:59:16.566Z,99693.42
2023-03-26T07:00:48.977Z,99684.18
2023-03-26T07:02:11.816Z,99682.42
2023-03-26T07:03:33.675Z,99686.73
2023-03-26T07:04:56.214Z,99683.46
2023-03-26T07:06:18.069Z,99683.48
2023-03-26T07:07:45.846Z,99682.07
2023-03-26T07:09:12.747Z,99680.17
2023-03-26T07:10:45.590Z,99684.11
2023-03-26T07:11:59.856Z,99680.92
2023-03-26T07:13:21.995Z,99683.52
2023-03-26T07:14:47.908Z,99681.90
2023-03-26T07:16:11.483Z,99685.34
2023-03-26T07:17:32.912Z,99687.37
2023-03-26T07:18:51.216Z,99687.77
2023-03-26T07:19:58.237Z,99686.85
2023-03-26T07:21:02.749Z,99688.83
2023-03-26T07:22:07.726Z,99688.39
2023-03-26T07:23:30.971Z,99690.55
2023-03-26T07:24:44.264Z,99689.94
2023-03-26T07:26:28.752Z,99689.02
2023-03-26T07:28:06.557Z,99689.61
2023-03-26T07:29:48.801Z,99689.77
2023-03-26T07:31:12.301Z,99692.96
2023-03-26T07:32:39.653Z,99695.43
2023-03-26T07:34:26.627Z,99693.08
2023-03-26T07:35:59.947Z,99692.17
2023-03-26T07:37:30.182Z,99696.60
2023-03-26T07:39:07.931Z,99697.00
2023-03-26T07:40:40.460Z,99699.45
2023-03-26T07:42:09.441Z,99699.30
2023-03-26T07:44:00.163Z,99696.65
2023-03-26T07:45:47.482Z,99695.27
2023-03-26T07:47:18.306Z,99697.53
2023-03-26T07:48:43.621Z,99695.89
2023-03-26T07:49:53.743Z,99699.02
2023-03-26T07:51:15.849Z,99702.17
2023-03-26T07:52:58.205Z,99701.20
2023-03-26T07:54:24.586Z,99706.25
2023-03-26T07:56:07.822Z,99703.77
2023-03-26T07:57:58.785Z,99709.20
2023-03-26T07:59:45.628Z,99707.21
2023-03-26T08:01:43.019Z,99712.14
2023-03-26T08:03:03.660Z,99710.16
2023-03-26T08:05:32.181Z,99708.00
2023-03-26T08:07:03.729Z,99709.55
2023-03-26T08:09:00.114Z,99707.35
2023-03-26T08:10:29.724Z,99712.44
2023-03-26T08:11:50.637Z,99707.23
2023-03-26T08:13:06.702Z,99713.11
2023-03-26T08:14:28.604Z,99711.81
2023-03-26T08:15:38.072Z,99709.20
2023-03-26T08:17:04.892Z,99710.60
2023-03-26T08:18:30.476Z,99710.39
2023-03-26T08:19:41.356Z,99711.85
2023-03-26T08:20:54.425Z,99719.05
2023-03-26T08:22:13.174Z,99716.27
2023-03-26T08:23:50.400Z,99712.70
2023-03-26T08:25:28.355Z,99716.02
2023-03-26T08:26:45.506Z,99714.60
2023-03-26T08:28:30.178Z,99707.38
2023-03-26T08:29:51.880Z,99707.75
2023-03-26T08:30:55.305Z,99711.28
2023-03-26T08:32:01.813Z,99710.13
2023-03-26T08:33:16.767Z,99712.67
2023-03-26T08:34:20.033Z,99715.84
2023-03-26T08:35:24.702Z,99713.05
2023-03-26T08:36:27.879Z,99710.23
2023-03-26T08:37:31.174Z,99711.95
2023-03-26T08:38:34.347Z,99715.79
2023-03-26T08:39:39.561Z,99712.17
2023-03-26T08:41:17.086Z,99714.94
2023-03-26T08:42:20.370Z,99712.34
2023-03-26T08:44:17.456Z,99712.02
2023-03-26T08:45:44.854Z,99708.38
2023-03-26T08:47:12.673Z,99708.54
2023-03-26T08:48:43.984Z,99705.89
2023-03-26T08:50:09.265Z,99709.32
2023-03-26T08:51:22.070Z,99711.29
2023-03-26T08:52:50.922Z,99716.75
2023-03-26T08:53:56.499Z,99717.40
2023-03-26T08:55:08.694Z,99717.69
2023-03-26T08:56:30.318Z,99720.36
2023-03-26T08:57:57.095Z,99720.00
2023-03-26T08:59:42.959Z,99721.94
2023-03-26T09:01:01.485Z,99724.11
2023-03-26T09:02:46.873Z,99725.08
2023-03-26T09:04:29.779Z,99724.05
2023-03-26T09:05:54.822Z,99723.65
2023-03-26T09:07:07.769Z,99722.90
2023-03-26T09:08:25.904Z,99721.83
2023-03-26T09:09:47.573Z,99722.83
2023-03-26T09:11:09.554Z,99721.32
2023-03-26T09:12:15.797Z,99719.68
2023-03-26T09:13:18.624Z,99722.58
2023-03-26T09:14:51.037Z,99723.41
2023-03-26T09:16:45.338Z,99725.46
2023-03-26T09:18:22.297Z,99721.78
2023-03-26T09:19:54.109Z,99722.84
2023-03-26T09:21:46.129Z,99724.88
2023-03-26T09:23:26.929Z,99721.69
2023-03-26T09:24:54.651Z,99723.34
2023-03-26T09:26:17.290Z,99725.09
2023-03-26T09:27:36.674Z,99725.92
2023-03-26T09:29:21.519Z,99726.68
2023-03-26T09:30:47.275Z,99723.63
2023-03-26T09:32:11.721Z,99727.33
2023-03-26T09:33:20.871Z,99726.94
2023-03-26T09:34:45.716Z,99729.06
2023-03-26T09:36:09.536Z,99734.16
2023-03-26T09:37:57.586Z,99733.94
2023-03-26T09:39:16.529Z,99741.52
2023-03-26T09:40:24.650Z,99741.11
2023-03-26T09:41:43.142Z,99739.71
2023-03-26T09:42:53.986Z,99740.25
2023-03-26T09:44:24.729Z,99740.23
2023-03-26T09:45:46.322Z,99739.60
2023-03-26T09:47:01.189Z,99735.64
2023-03-26T09:48:20.110Z,99739.19
2023-03-26T09:50:00.618Z,99743.92
2023-03-26T09:51:22.393Z,99744.05
2023-03-26T09:53:03.009Z,99745.11
2023-03-26T09:54:13.967Z,99747.89
2023-03-26T09:55:45.253Z,99746.86
2023-03-26T09:57:04.965Z,99745.70
2023-03-26T09:58:19.951Z,99749.27
2023-03-26T09:59:58.097Z,99751.42
2023-03-26T10:01:25.862Z,99751.06
2023-03-26T10:02:48.142Z,99752.31
2023-03-26T10:04:15.732Z,99757.03
2023-03-26T10:05:42.616Z,99755.59
2023-03-26T10:07:12.441Z,99759.45
2023-03-26T10:08:47.626Z,99763.05
2023-03-26T10:10:15.477Z,99761.23
2023-03-26T10:11:37.851Z,99761.94
2023-03-26T10:12:51.094Z,99763.75
2023-03-26T10:13:59.582Z,99761.55
2023-03-26T10:15:23.995Z,99758.64
2023-03-26T10:16:59.676Z,99759.05
2023-03-26T10:18:37.269Z,99761.19
2023-03-26T10:20:04.563Z,99761.09
2023-03-26T10:21:32.337Z,99762.27
2023-03-26T10:22:59.250Z,99764.03
2023-03-26T10:25:01.452Z,99765.36
2023-03-26T10:26:22.463Z,99756.61
2023-03-26T10:27:44.333Z,99759.59
2023-03-26T10:29:16.226Z,99757.41
2023-03-26T10:30:35.367Z,99759.14
2023-03-26T10:32:01.497Z,99759.64
2023-03-26T10:33:19.574Z,99758.38
2023-03-26T10:34:54.538Z,99756.74
2023-03-26T10:36:29.433Z,99761.69
2023-03-26T10:38:04.387Z,99757.95
2023-03-26T10:39:38.934Z,99755.29
2023-03-26T10:40:55.417Z,99757.52
2023-03-26T10:42:26.638Z,99758.84
2023-03-26T10:44:15.816Z,99759.73
2023-03-26T10:45:53.182Z,99756.45
2023-03-26T10:47:35.439Z,99756.86
2023-03-26T10:48:47.721Z,99755.67
2023-03-26T10:50:22.680Z,99758.58
2023-03-26T10:51:51.531Z,99753.09
2023-03-26T10:53:20.704Z,99755.50
2023-03-26T10:54:36.261Z,99759.66
2023-03-26T10:55:46.945Z,99759.23
2023-03-26T10:56:52.410Z,99760.45
2023-03-26T10:58:13.379Z,99758.45
2023-03-26T10:59:19.138Z,99751.85
2023-03-26T11:00:29.260Z,99753.52
2023-03-26T11:01:42.173Z,99752.96
2023-03-26T11:03:00.844Z,99746.13
2023-03-26T11:04:42.704Z,99755.73
2023-03-26T11:05:48.648Z,99753.40
2023-03-26T11:07:09.047Z,99751.73
2023-03-26T11:08:21.345Z,99760.20
2023-03-26T11:09:51.563Z,99758.42
2023-03-26T11:10:55.898Z,99764.00
2023-03-26T11:12:27.034Z,99771.33
2023-03-26T11:13:54.010Z,99767.02
2023-03-26T11:15:17.944Z,99772.85
2023-03-26T11:16:36.397Z,99769.07
2023-03-26T11:17:51.659Z,99777.66
2023-03-26T11:19:05.163Z,99779.25
2023-03-26T11:20:11.499Z,99775.70
2023-03-26T11:21:29.354Z,99779.44
2023-03-26T11:23:04.911Z,99780.61
2023-03-26T11:24:42.191Z,99780.04
2023-03-26T11:26:02.176Z,99785.92
2023-03-26T11:27:15.702Z,99785.27
2023-03-26T11:28:28.577Z,99787.47
2023-03-26T11:29:49.372Z,99784.45
2023-03-26T11:31:08.716Z,99781.90
2023-03-26T11:32:15.581Z,99785.54
2023-03-26T11:33:45.707Z,99789.08
2023-03-26T11:35:08.212Z,99785.44
2023-03-26T11:36:16.682Z,99786.94
2023-03-26T11:37:46.481Z,99788.59
2023-03-26T11:38:57.904Z,99784.93
2023-03-26T11:40:14.789Z,99785.11
2023-03-26T11:41:24.138Z,99786.73
2023-03-26T11:42:30.498Z,99784.33
2023-03-26T11:43:36.846Z,99786.27
2023-03-26T11:45:05.250Z,99785.65
2023-03-26T11:46:14.234Z,99788.98
2023-03-26T11:47:23.486Z,99783.54
2023-03-26T11:48:33.106Z,99780.27
2023-03-26T11:49:37.321Z,99781.11
2023-03-26T11:50:46.509Z,99775.41
2023-03-26T11:51:49.713Z,99775.59
2023-03-26T11:52:57.373Z,99771.92
2023-03-26T11:54:04.942Z,99769.30
2023-03-26T11:55:12.665Z,99767.55
2023-03-26T11:56:32.691Z,99770.02
2023-03-26T11:57:38.386Z,99769.90
2023-03-26T11:59:13.425Z,99773.63
2023-03-26T12:00:21.112Z,99771.58
2023-03-26T12:01:58.550Z,99773.30
2023-03-26T12:03:01.625Z,99774.23
2023-03-26T12:04:14.585Z,99775.34
2023-03-26T12:05:26.431Z,99775.19
2023-03-26T12:06:29.674Z,99776.25
2023-03-26T12:07:34.409Z,99778.02
2023-03-26T12:08:42.252Z,99780.80
2023-03-26T12:09:51.167Z,99784.61
2023-03-26T12:11:04.472Z,99789.12
2023-03-26T12:12:07.446Z,99787.98
2023-03-26T12:13:36.966Z,99784.00
2023-03-26T12:14:42.900Z,99785.71
2023-03-26T12:15:45.864Z,99788.65
2023-03-26T12:17:01.281Z,99787.50
2023-03-26T12:18:28.463Z,99789.50
2023-03-26T12:19:39.542Z,99779.55
2023-03-26T12:20:42.731Z,99780.33
2023-03-26T12:21:51.321Z,99777.20
2023-03-26T12:22:59.514Z,99780.77
2023-03-26T12:24:06.227Z,99784.02
2023-03-26T12:25:17.698Z,99786.46
2023-03-26T12:26:35.084Z,99785.89
2023-03-26T12:27:38.014Z,99781.98
2023-03-26T12:28:46.052Z,99787.48
2023-03-26T12:29:55.086Z,99787.66
2023-03-26T12:31:02.887Z,99789.02
2023-03-26T12:32:15.412Z,99784.02
2023-03-26T12:33:30.246Z,99781.22
2023-03-26T12:34:36.794Z,99783.84
2023-03-26T12:35:40.881Z,99785.63
2023-03-26T12:36:53.523Z,99782.79
2023-03-26T12:38:13.388Z,99781.34
2023-03-26T12:40:09.299Z,99788.90
2023-03-26T12:41:08.001Z,99780.39
2023-03-26T12:44:51.385Z,99776.65
2023-03-26T12:44:52.618Z,99780.27
2023-03-26T12:45:44.473Z,99788.77
2023-03-26T12:48:00.391Z,99783.86
2023-03-26T12:48:18.608Z,99790.98
2023-03-26T12:49:22.730Z,99798.17
2023-03-26T12:50:36.410Z,99794.33
2023-03-26T12:51:49.623Z,99799.52
2023-03-26T12:53:19.237Z,99797.08
2023-03-26T12:55:00.358Z,99795.62
2023-03-26T12:56:06.045Z,99801.59
2023-03-26T12:57:25.268Z,99804.84
2023-03-26T12:58:54.962Z,99804.34
2023-03-26T13:00:25.446Z,99809.65
2023-03-26T13:01:40.778Z,99805.05
2023-03-26T13:02:53.091Z,99804.92
2023-03-26T13:04:18.401Z,99806.56
2023-03-26T13:06:03.336Z,99811.35
2023-03-26T13:07:47.231Z,99815.55
2023-03-26T13:08:52.748Z,99814.18
2023-03-26T13:10:22.862Z,99813.15
2023-03-26T13:11:55.562Z,99812.15
2023-03-26T13:13:23.457Z,99814.27
2023-03-26T13:15:00.921Z,99808.71
2023-03-26T13:16:09.376Z,99819.30
2023-03-26T13:17:30.037Z,99818.02
2023-03-26T13:18:51.951Z,99822.09
2023-03-26T13:20:29.868Z,99821.06
2023-03-26T13:21:55.187Z,99825.79
2023-03-26T13:23:20.967Z,99828.38
2023-03-26T13:24:32.992Z,99829.89
2023-03-26T13:26:00.557Z,99828.91
2023-03-26T13:27:28.377Z,99832.93
2023-03-26T13:28:33.262Z,99828.96
2023-03-26T13:30:13.341Z,99822.38
2023-03-26T13:31:27.887Z,99830.25
2023-03-26T13:32:34.009Z,99829.52
2023-03-26T13:34:16.219Z,99828.60
2023-03-26T13:35:45.883Z,99825.11
2023-03-26T13:36:51.879Z,99830.05
2023-03-26T13:38:11.699Z,99829.81
2023-03-26T13:39:21.220Z,99832.09
2023-03-26T13:40:33.665Z,99836.29
2023-03-26T13:41:59.631Z,99831.92
2023-03-26T13:43:36.869Z,99832.14
2023-03-26T13:45:05.506Z,99833.55
2023-03-26T13:46:18.391Z,99836.31
2023-03-26T13:47:29.132Z,99837.86
2023-03-26T13:48:43.382Z,99831.34
2023-03-26T13:50:01.966Z,99839.05
2023-03-26T13:51:42.244Z,99835.69
2023-03-26T13:52:52.258Z,99838.25
2023-03-26T13:53:55.221Z,99844.27
2023-03-26T13:55:04.428Z,99838.21
2023-03-26T13:56:13.668Z,99842.05
2023-03-26T13:57:41.635Z,99845.08
2023-03-26T13:58:50.627Z,99842.45
2023-03-26T13:59:59.172Z,99848.46
2023-03-26T14:01:17.056Z,99848.77
2023-03-26T14:02:47.891Z,99840.86
2023-03-26T14:04:01.038Z,99840.08
2023-03-26T14:05:21.252Z,99847.64
2023-03-26T14:06:47.411Z,99846.70
2023-03-26T14:08:22.853Z,99839.42
2023-03-26T14:09:42.616Z,99845.92
2023-03-26T14:10:56.804Z,99843.98
2023-03-26T14:12:24.827Z,99845.48
2023-03-26T14:13:43.637Z,99842.27
2023-03-26T14:14:53.139Z,99839.69
2023-03-26T14:16:11.811Z,99838.66
2023-03-26T14:17:20.759Z,99835.41
2023-03-26T14:18:38.263Z,99837.44
2023-03-26T14:20:10.312Z,99834.89
2023-03-26T14:21:42.778Z,99833.03
2023-03-26T14:23:22.021Z,99829.45
2023-03-26T14:24:44.194Z,99819.36
2023-03-26T14:25:56.194Z,99820.60
2023-03-26T14:27:37.411Z,99822.19
2023-03-26T14:29:56.365Z,99826.10
2023-03-26T14:31:19.556Z,99823.71
2023-03-26T14:32:49.366Z,99824.90
2023-03-26T14:34:34.524Z,99821.88
2023-03-26T14:36:14.460Z,99818.77
2023-03-26T14:37:33.163Z,99817.47
2023-03-26T14:39:13.619Z,99820.77
2023-03-26T14:40:39.703Z,99822.46
2023-03-26T14:41:53.318Z,99826.90
2023-03-26T14:43:23.306Z,99826.62
2023-03-26T14:45:07.398Z,99826.84
2023-03-26T14:46:21.563Z,99815.88
2023-03-26T14:47:25.139Z,99816.60
2023-03-26T14:48:37.173Z,99817.23
2023-03-26T14:50:22.623Z,99808.73
2023-03-26T14:51:47.751Z,99810.45
2023-03-26T14:52:52.941Z,99811.23
2023-03-26T14:54:19.192Z,99807.61
2023-03-26T14:55:48.629Z,99816.66
2023-03-26T14:57:00.984Z,99813.45
2023-03-26T14:58:47.816Z,99807.76
2023-03-26T14:59:51.109Z,99809.45